createdAt,value
2023-10-26T00:01:17.911Z,99577.25
2023-10-26T00:03:45.649Z,99574.78
2023-10-26T00:06:13.368Z,99577.56
2023-10-26T00:08:40.912Z,99580.09
2023-10-26T00:11:08.476Z,99570.13
2023-10-26T00:13:36.362Z,99585.09
2023-10-26T00:16:04.770Z,99581.56
2023-10-26T00:18:32.443Z,99576.44
2023-10-26T00:21:01.547Z,99573.25
2023-10-26T00:23:29.547Z,99577.91
2023-10-26T00:25:57.134Z,99577.03
2023-10-26T00:28:24.787Z,99578.56
2023-10-26T00:30:52.338Z,99575.25
2023-10-26T00:33:19.990Z,99575.25
2023-10-26T00:35:47.616Z,99578.31
2023-10-26T00:38:15.385Z,99582.34
2023-10-26T00:40:42.970Z,99584.88
2023-10-26T00:43:20.345Z,99578.72
2023-10-26T00:45:51.597Z,99577.78
2023-10-26T00:48:21.167Z,99582.28
2023-10-26T00:50:51.703Z,99583.09
2023-10-26T00:53:21.323Z,99581.97
2023-10-26T00:55:52.596Z,99574.00
2023-10-26T00:58:22.658Z,99571.66
2023-10-26T01:00:50.918Z,99575.13
2023-10-26T01:03:19.040Z,99583.28
2023-10-26T01:05:46.697Z,99571.53
2023-10-26T01:08:14.263Z,99576.53
2023-10-26T01:10:41.946Z,99584.63
2023-10-26T01:13:09.894Z,99577.28
2023-10-26T01:15:37.478Z,99575.78
2023-10-26T01:18:05.803Z,99576.75
2023-10-26T01:20:33.474Z,99583.72
2023-10-26T01:23:01.036Z,99588.22
2023-10-26T01:25:28.627Z,99580.72
2023-10-26T01:27:56.152Z,99578.72
2023-10-26T01:30:23.792Z,99576.06
2023-10-26T01:32:51.456Z,99580.09
2023-10-26T01:35:19.049Z,99577.88
2023-10-26T01:37:46.622Z,99581.22
2023-10-26T01:40:14.188Z,99575.59
2023-10-26T01:42:41.799Z,99584.25
2023-10-26T01:45:09.938Z,99577.44
2023-10-26T01:47:37.539Z,99575.31
2023-10-26T01:50:05.652Z,99581.59
2023-10-26T01:52:33.144Z,99586.09
2023-10-26T01:55:00.945Z,99581.44
2023-10-26T01:57:28.834Z,99581.75
2023-10-26T01:59:57.521Z,99583.44
2023-10-26T02:02:25.059Z,99582.06
2023-10-26T02:04:52.594Z,99578.56
2023-10-26T02:07:20.144Z,99581.06
2023-10-26T02:09:47.731Z,99582.06
2023-10-26T02:12:15.511Z,99582.19
2023-10-26T02:14:43.363Z,99582.06
2023-10-26T02:17:11.029Z,99583.03
2023-10-26T02:19:39.399Z,99579.00
2023-10-26T02:22:06.885Z,99586.00
2023-10-26T02:24:34.407Z,99583.66
2023-10-26T02:27:01.901Z,99586.59
2023-10-26T02:29:29.993Z,99589.56
2023-10-26T02:31:57.524Z,99590.25
2023-10-26T02:34:25.068Z,99590.91
2023-10-26T02:36:52.620Z,99601.25
2023-10-26T02:39:20.284Z,99604.59
2023-10-26T02:41:47.887Z,99608.66
2023-10-26T02:44:15.455Z,99615.09
2023-10-26T02:46:43.028Z,99620.56
2023-10-26T02:49:10.545Z,99613.88
2023-10-26T02:51:38.064Z,99618.38
2023-10-26T02:54:05.809Z,99624.63
2023-10-26T02:56:33.370Z,99614.88
2023-10-26T02:59:00.909Z,99613.88
2023-10-26T03:01:36.129Z,99619.13
2023-10-26T03:04:04.225Z,99622.22
2023-10-26T03:06:41.396Z,99625.03
2023-10-26T03:09:11.897Z,99620.78
2023-10-26T03:11:39.491Z,99615.47
2023-10-26T03:14:06.993Z,99621.75
2023-10-26T03:16:34.723Z,99625.09
2023-10-26T03:19:02.334Z,99624.25
2023-10-26T03:21:30.061Z,99629.56
2023-10-26T03:23:57.781Z,99626.63
2023-10-26T03:26:25.369Z,99629.44
2023-10-26T03:28:53.585Z,99623.97
2023-10-26T03:31:21.203Z,99628.91
2023-10-26T03:33:48.751Z,99617.00
2023-10-26T03:36:18.159Z,99622.31
2023-10-26T03:38:46.432Z,99624.13
2023-10-26T03:41:14.911Z,99633.75
2023-10-26T03:43:42.446Z,99627.78
2023-10-26T03:46:10.065Z,99626.78
2023-10-26T03:48:37.643Z,99626.09
2023-10-26T03:51:06.059Z,99628.63
2023-10-26T03:53:33.719Z,99627.78
2023-10-26T03:56:02.957Z,99630.28
2023-10-26T03:58:30.551Z,99627.78
2023-10-26T04:00:59.384Z,99638.22
2023-10-26T04:03:27.198Z,99637.69
2023-10-26T04:05:54.902Z,99626.09
2023-10-26T04:08:22.396Z,99632.53
2023-10-26T04:10:50.943Z,99636.19
2023-10-26T04:13:18.463Z,99633.53
2023-10-26T04:15:46.007Z,99633.53
2023-10-26T04:18:13.616Z,99638.69
2023-10-26T04:20:41.202Z,99640.50
2023-10-26T04:23:08.767Z,99640.94
2023-10-26T04:25:53.073Z,99638.97
2023-10-26T04:28:21.941Z,99644.44
2023-10-26T04:30:49.954Z,99637.59
2023-10-26T04:33:18.449Z,99633.00
2023-10-26T04:35:47.636Z,99643.59
2023-10-26T04:38:15.526Z,99639.41
2023-10-26T04:40:44.340Z,99631.75
2023-10-26T04:43:11.937Z,99647.81
2023-10-26T04:45:39.678Z,99649.19
2023-10-26T04:48:07.366Z,99653.50
2023-10-26T04:50:34.924Z,99651.84
2023-10-26T04:53:03.899Z,99652.53
2023-10-26T04:55:34.946Z,99646.94
2023-10-26T04:58:03.572Z,99647.09
2023-10-26T05:00:32.012Z,99646.94
2023-10-26T05:02:59.808Z,99654.22
2023-10-26T05:05:27.956Z,99652.13
2023-10-26T05:07:55.643Z,99652.97
2023-10-26T05:10:23.308Z,99651.59
2023-10-26T05:12:51.002Z,99654.41
2023-10-26T05:15:20.230Z,99650.38
2023-10-26T05:17:47.878Z,99639.63
2023-10-26T05:20:15.497Z,99648.28
2023-10-26T05:22:43.107Z,99643.09
2023-10-26T05:25:12.596Z,99641.28
2023-10-26T05:27:40.454Z,99639.22
2023-10-26T05:30:08.848Z,99642.81
2023-10-26T05:32:36.541Z,99647.72
2023-10-26T05:35:05.323Z,99649.69
2023-10-26T05:37:33.041Z,99648.56
2023-10-26T05:40:00.603Z,99644.63
2023-10-26T05:42:28.377Z,99646.44
2023-10-26T05:44:57.696Z,99653.69
2023-10-26T05:47:25.410Z,99649.50
2023-10-26T05:49:53.044Z,99657.47
2023-10-26T05:52:20.804Z,99655.69
2023-10-26T05:54:48.479Z,99652.03
2023-10-26T05:57:16.098Z,99648.84
2023-10-26T05:59:43.679Z,99646.03
2023-10-26T06:02:11.359Z,99648.56
2023-10-26T06:04:38.981Z,99659.38
2023-10-26T06:07:06.505Z,99657.59
2023-10-26T06:09:34.192Z,99665.00
2023-10-26T06:12:01.703Z,99669.16
2023-10-26T06:14:29.915Z,99673.09
2023-10-26T06:16:57.432Z,99671.81
2023-10-26T06:19:24.960Z,99668.50
2023-10-26T06:21:52.489Z,99663.88
2023-10-26T06:24:20.783Z,99667.22
2023-10-26T06:26:48.266Z,99667.94
2023-10-26T06:29:15.780Z,99680.47
2023-10-26T06:31:43.392Z,99680.03
2023-10-26T06:34:11.034Z,99689.25
2023-10-26T06:36:38.612Z,99687.31
2023-10-26T06:39:06.225Z,99694.53
2023-10-26T06:41:33.816Z,99687.16
2023-10-26T06:44:01.477Z,99679.34
2023-10-26T06:46:29.664Z,99685.91
2023-10-26T06:48:57.308Z,99684.41
2023-10-26T06:51:27.780Z,99692.19
2023-10-26T06:53:55.300Z,99678.66
2023-10-26T06:56:22.927Z,99677.00
2023-10-26T06:58:50.420Z,99675.16
2023-10-26T07:01:19.825Z,99672.13
2023-10-26T07:03:52.218Z,99675.16
2023-10-26T07:06:20.607Z,99683.13
2023-10-26T07:08:51.952Z,99681.31
2023-10-26T07:11:23.776Z,99686.31
2023-10-26T07:13:51.325Z,99686.03
2023-10-26T07:16:19.072Z,99685.59
2023-10-26T07:18:46.618Z,99687.78
2023-10-26T07:21:14.657Z,99691.97
2023-10-26T07:23:42.679Z,99688.34
2023-10-26T07:26:11.097Z,99692.41
2023-10-26T07:28:38.607Z,99687.34
2023-10-26T07:31:06.245Z,99692.19
2023-10-26T07:33:33.747Z,99695.22
2023-10-26T07:36:01.691Z,99696.22
2023-10-26T07:38:36.786Z,99703.72
2023-10-26T07:41:06.995Z,99695.78
2023-10-26T07:43:38.647Z,99699.97
2023-10-26T07:46:06.726Z,99700.13
2023-10-26T07:48:37.172Z,99701.63
2023-10-26T07:51:05.080Z,99700.78
2023-10-26T07:53:32.590Z,99703.72
2023-10-26T07:56:00.193Z,99703.59
2023-10-26T07:58:30.245Z,99703.06
2023-10-26T08:00:57.840Z,99693.13
2023-10-26T08:03:25.589Z,99696.19
2023-10-26T08:06:00.420Z,99699.66
2023-10-26T08:08:31.180Z,99698.97
2023-10-26T08:11:08.623Z,99706.88
2023-10-26T08:13:36.311Z,99706.19
2023-10-26T08:16:29.987Z,99701.03
2023-10-26T08:18:51.730Z,99704.97
2023-10-26T08:21:19.884Z,99709.66
2023-10-26T08:23:48.209Z,99710.38
2023-10-26T08:26:16.399Z,99716.34
2023-10-26T08:28:44.116Z,99711.03
2023-10-26T08:31:11.599Z,99708.25
2023-10-26T08:33:39.318Z,99710.06
2023-10-26T08:36:07.400Z,99718.03
2023-10-26T08:38:34.985Z,99716.75
2023-10-26T08:41:02.689Z,99725.09
2023-10-26T08:43:30.875Z,99720.16
2023-10-26T08:46:00.563Z,99715.56
2023-10-26T08:48:30.991Z,99714.72
2023-10-26T08:50:58.854Z,99720.78
2023-10-26T08:53:26.516Z,99724.56
2023-10-26T08:55:56.466Z,99716.59
2023-10-26T08:58:24.195Z,99720.25
2023-10-26T09:00:52.953Z,99725.09
2023-10-26T09:03:23.155Z,99726.75
2023-10-26T09:05:56.165Z,99725.78
2023-10-26T09:08:24.750Z,99720.78
2023-10-26T09:10:52.708Z,99727.91
2023-10-26T09:13:29.244Z,99732.91
2023-10-26T09:15:59.650Z,99730.84
2023-10-26T09:18:28.283Z,99733.75
2023-10-26T09:21:04.477Z,99737.31
2023-10-26T09:23:36.587Z,99726.47
2023-10-26T09:26:06.309Z,99736.94
2023-10-26T09:28:56.849Z,99727.91
2023-10-26T09:31:25.594Z,99734.66
2023-10-26T09:33:53.266Z,99734.06
2023-10-26T09:36:21.985Z,99736.56
2023-10-26T09:38:50.544Z,99738.41
2023-10-26T09:41:20.293Z,99738.59
2023-10-26T09:43:49.288Z,99730.66
2023-10-26T09:46:19.517Z,99730.88
2023-10-26T09:48:48.027Z,99739.78
2023-10-26T09:51:16.437Z,99741.81
2023-10-26T09:53:48.211Z,99741.16
2023-10-26T09:56:28.613Z,99740.81
2023-10-26T09:58:56.348Z,99751.59
2023-10-26T10:01:44.393Z,99750.91
2023-10-26T10:04:12.433Z,99748.50
2023-10-26T10:06:53.520Z,99751.91
2023-10-26T10:09:28.147Z,99750.03
2023-10-26T10:12:16.650Z,99755.88
2023-10-26T10:14:54.452Z,99750.63
2023-10-26T10:17:24.132Z,99757.91
2023-10-26T10:20:20.166Z,99743.41
2023-10-26T10:22:53.674Z,99749.72
2023-10-26T10:25:24.461Z,99748.88
2023-10-26T10:27:52.002Z,99747.06
2023-10-26T10:30:22.381Z,99742.13
2023-10-26T10:32:52.269Z,99749.91
2023-10-26T10:35:23.103Z,99742.47
2023-10-26T10:38:12.346Z,99741.19
2023-10-26T10:40:41.809Z,99740.47
2023-10-26T10:43:11.032Z,99737.34
2023-10-26T10:45:38.642Z,99733.16
2023-10-26T10:48:06.597Z,99737.25
2023-10-26T10:50:34.299Z,99742.41
2023-10-26T10:53:01.904Z,99747.59
2023-10-26T10:55:31.179Z,99737.94
2023-10-26T10:57:59.983Z,99739.22
2023-10-26T11:00:42.117Z,99751.09
2023-10-26T11:03:10.079Z,99739.09
2023-10-26T11:05:39.491Z,99742.34
2023-10-26T11:08:08.533Z,99729.94
2023-10-26T11:10:36.920Z,99733.50
2023-10-26T11:13:05.226Z,99736.38
2023-10-26T11:15:37.730Z,99740.94
2023-10-26T11:18:08.689Z,99733.66
2023-10-26T11:20:43.236Z,99739.16
2023-10-26T11:23:12.358Z,99742.59
2023-10-26T11:25:40.400Z,99738.81
2023-10-26T11:28:08.675Z,99737.47
2023-10-26T11:31:00.533Z,99738.75
2023-10-26T11:33:32.710Z,99738.91
2023-10-26T11:36:01.058Z,99741.84
2023-10-26T11:38:29.040Z,99746.25
2023-10-26T11:40:56.887Z,99740.41
2023-10-26T11:43:36.041Z,99734.63
2023-10-26T11:46:06.732Z,99745.75
2023-10-26T11:48:35.060Z,99738.97
2023-10-26T11:51:07.997Z,99743.53
2023-10-26T11:53:36.963Z,99750.63
2023-10-26T11:56:05.271Z,99745.31
2023-10-26T11:58:34.520Z,99736.56
2023-10-26T12:01:02.364Z,99739.09
2023-10-26T12:03:30.220Z,99734.22
2023-10-26T12:05:58.583Z,99734.53
2023-10-26T12:08:26.122Z,99728.53
2023-10-26T12:10:53.853Z,99733.38
2023-10-26T12:13:21.366Z,99733.13
2023-10-26T12:15:48.990Z,99726.38
2023-10-26T12:18:16.560Z,99730.41
2023-10-26T12:20:44.076Z,99722.06
2023-10-26T12:23:11.543Z,99727.66
2023-10-26T12:25:39.611Z,99728.06
2023-10-26T12:28:19.375Z,99730.53
2023-10-26T12:30:51.402Z,99732.81
2023-10-26T12:33:19.408Z,99739.59
2023-10-26T12:35:48.262Z,99736.53
2023-10-26T12:38:16.596Z,99732.66
2023-10-26T12:40:44.207Z,99737.38
2023-10-26T12:43:11.649Z,99733.72
2023-10-26T12:45:40.139Z,99730.78
2023-10-26T12:48:08.333Z,99733.81
2023-10-26T12:50:35.923Z,99735.84
2023-10-26T12:53:03.721Z,99732.41
2023-10-26T12:55:31.360Z,99729.06
2023-10-26T12:57:59.385Z,99734.38
2023-10-26T13:00:28.189Z,99736.41
2023-10-26T13:02:55.859Z,99736.94
2023-10-26T13:05:23.502Z,99740.44
2023-10-26T13:07:51.402Z,99733.28
2023-10-26T13:10:19.037Z,99735.28
2023-10-26T13:12:48.479Z,99721.97
2023-10-26T13:15:20.968Z,99732.44
2023-10-26T13:17:50.427Z,99724.94
2023-10-26T13:20:18.207Z,99721.47
2023-10-26T13:22:45.811Z,99722.81
2023-10-26T13:25:13.392Z,99713.00
2023-10-26T13:27:40.955Z,99717.00
2023-10-26T13:30:09.017Z,99718.06
2023-10-26T13:32:36.581Z,99714.09
2023-10-26T13:35:04.259Z,99725.25
2023-10-26T13:37:31.881Z,99719.91
2023-10-26T13:39:59.428Z,99710.41
2023-10-26T13:42:32.489Z,99713.91
2023-10-26T13:45:00.069Z,99714.38
2023-10-26T13:47:27.639Z,99710.22
2023-10-26T13:49:55.223Z,99719.88
2023-10-26T13:52:22.800Z,99718.19
2023-10-26T13:54:50.344Z,99717.22
2023-10-26T13:57:17.870Z,99717.38
2023-10-26T13:59:45.407Z,99720.41
2023-10-26T14:02:12.884Z,99714.09
2023-10-26T14:04:40.374Z,99714.22
2023-10-26T14:07:10.472Z,99721.84
2023-10-26T14:09:38.115Z,99714.50
2023-10-26T14:12:06.398Z,99717.81
2023-10-26T14:14:35.856Z,99716.13
2023-10-26T14:17:05.067Z,99715.13
2023-10-26T14:19:32.766Z,99709.31
2023-10-26T14:22:00.739Z,99707.25
2023-10-26T14:24:28.541Z,99714.88
2023-10-26T14:26:56.053Z,99717.53
2023-10-26T14:29:23.587Z,99719.19
2023-10-26T14:31:51.131Z,99720.19
2023-10-26T14:34:18.771Z,99710.75
2023-10-26T14:36:46.384Z,99717.28
2023-10-26T14:39:14.269Z,99709.44
2023-10-26T14:41:47.230Z,99707.63
2023-10-26T14:44:18.323Z,99701.16
2023-10-26T14:46:50.630Z,99710.31
2023-10-26T14:49:26.711Z,99699.66
2023-10-26T14:51:54.895Z,99696.63
2023-10-26T14:54:22.684Z,99701.81
2023-10-26T14:56:50.216Z,99692.81
2023-10-26T14:59:17.776Z,99692.00
2023-10-26T15:01:45.326Z,99690.94
2023-10-26T15:04:13.010Z,99687.97
2023-10-26T15:06:40.587Z,99680.16
2023-10-26T15:09:09.711Z,99686.94
2023-10-26T15:11:50.462Z,99686.69
2023-10-26T15:14:25.031Z,99684.81
2023-10-26T15:16:54.170Z,99672.22
2023-10-26T15:19:22.369Z,99680.50
2023-10-26T15:21:50.225Z,99677.16
2023-10-26T15:24:17.800Z,99669.28
2023-10-26T15:26:45.321Z,99674.06
2023-10-26T15:29:12.875Z,99670.28
2023-10-26T15:31:40.466Z,99669.59
2023-10-26T15:34:08.026Z,99666.09
2023-10-26T15:36:35.611Z,99662.50
2023-10-26T15:39:03.281Z,99668.97
2023-10-26T15:41:34.548Z,99672.78
2023-10-26T15:44:02.132Z,99672.09
2023-10-26T15:46:30.116Z,99674.97
2023-10-26T15:49:31.266Z,99669.81
2023-10-26T15:51:49.466Z,99674.75
2023-10-26T15:54:17.097Z,99668.13
2023-10-26T15:56:44.724Z,99666.47
2023-10-26T15:59:12.263Z,99665.94
2023-10-26T16:01:39.901Z,99671.72
2023-10-26T16:04:07.822Z,99674.22
2023-10-26T16:06:35.427Z,99679.91
2023-10-26T16:09:03.002Z,99681.00
2023-10-26T16:11:30.695Z,99681.47
2023-10-26T16:13:58.173Z,99683.66
2023-10-26T16:16:25.897Z,99686.00
2023-10-26T16:18:53.661Z,99687.38
2023-10-26T16:21:21.318Z,99689.13
2023-10-26T16:23:48.998Z,99693.00
2023-10-26T16:26:16.705Z,99690.69
2023-10-26T16:28:44.265Z,99688.44
2023-10-26T16:31:11.850Z,99694.75
2023-10-26T16:33:39.520Z,99693.41
2023-10-26T16:36:07.512Z,99692.09
2023-10-26T16:38:35.084Z,99700.59
2023-10-26T16:41:02.765Z,99696.72
2023-10-26T16:43:30.481Z,99698.25
2023-10-26T16:45:59.271Z,99696.94
2023-10-26T16:48:27.890Z,99698.91
2023-10-26T16:50:56.633Z,99697.41
2023-10-26T16:53:31.998Z,99694.06
2023-10-26T16:56:04.882Z,99689.22
2023-10-26T16:58:35.456Z,99686.84
2023-10-26T17:01:13.041Z,99685.72
2023-10-26T17:03:40.733Z,99682.19
2023-10-26T17:06:10.307Z,99682.47
2023-10-26T17:08:38.146Z,99680.72
2023-10-26T17:11:06.213Z,99684.00
2023-10-26T17:13:33.751Z,99679.53
2023-10-26T17:16:01.558Z,99682.47
2023-10-26T17:18:29.651Z,99676.88
2023-10-26T17:20:58.085Z,99675.34
2023-10-26T17:23:25.928Z,99680.59
2023-10-26T17:25:53.395Z,99681.72
2023-10-26T17:28:20.992Z,99671.72
2023-10-26T17:30:48.484Z,99671.84
2023-10-26T17:33:16.906Z,99672.69
2023-10-26T17:35:55.935Z,99673.66
2023-10-26T17:38:24.054Z,99669.88
2023-10-26T17:40:52.371Z,99672.91
2023-10-26T17:43:20.189Z,99662.28
2023-10-26T17:45:56.017Z,99664.25
2023-10-26T17:48:23.725Z,99673.66
2023-10-26T17:50:51.303Z,99668.38
2023-10-26T17:53:20.477Z,99669.06
2023-10-26T17:55:48.768Z,99663.75
2023-10-26T17:58:16.297Z,99674.50
2023-10-26T18:00:43.982Z,99665.00
2023-10-26T18:03:11.563Z,99664.63
2023-10-26T18:05:39.111Z,99660.16
2023-10-26T18:08:06.628Z,99650.53
2023-10-26T18:10:35.995Z,99652.50
2023-10-26T18:13:03.520Z,99649.00
2023-10-26T18:15:34.193Z,99651.66
2023-10-26T18:18:01.841Z,99650.84
2023-10-26T18:20:30.008Z,99650.84
2023-10-26T18:22:57.978Z,99651.66
2023-10-26T18:25:25.542Z,99650.31
2023-10-26T18:27:53.728Z,99656.69
2023-10-26T18:30:21.277Z,99664.50
2023-10-26T18:32:48.936Z,99656.69
2023-10-26T18:35:16.742Z,99659.19
2023-10-26T18:37:44.563Z,99660.31
2023-10-26T18:40:12.685Z,99662.81
2023-10-26T18:42:40.338Z,99661.84
2023-10-26T18:45:08.225Z,99664.50
2023-10-26T18:47:35.717Z,99666.47
2023-10-26T18:50:03.317Z,99670.94
2023-10-26T18:52:31.019Z,99671.41
2023-10-26T18:54:58.578Z,99668.97
2023-10-26T18:57:26.142Z,99675.13
2023-10-26T18:59:53.706Z,99679.56
2023-10-26T19:02:21.276Z,99687.25
2023-10-26T19:04:49.975Z,99686.41
2023-10-26T19:07:17.687Z,99690.59
2023-10-26T19:09:45.485Z,99694.00
2023-10-26T19:12:13.325Z,99696.81
2023-10-26T19:14:40.941Z,99687.13
2023-10-26T19:17:08.955Z,99690.91
2023-10-26T19:19:37.153Z,99697.56
2023-10-26T19:22:04.976Z,99693.78
2023-10-26T19:24:32.588Z,99702.72
2023-10-26T19:27:00.124Z,99695.91
2023-10-26T19:29:27.614Z,99695.50
2023-10-26T19:31:55.160Z,99698.03
2023-10-26T19:34:22.864Z,99697.22
2023-10-26T19:36:50.424Z,99694.69
2023-10-26T19:39:17.976Z,99699.44
2023-10-26T19:41:45.549Z,99701.16
2023-10-26T19:44:15.186Z,99702.66
2023-10-26T19:46:42.832Z,99700.63
2023-10-26T19:49:10.554Z,99696.25
2023-10-26T19:51:38.132Z,99695.97
2023-10-26T19:54:06.125Z,99691.50
2023-10-26T19:56:33.645Z,99690.81
2023-10-26T19:59:01.495Z,99690.53
2023-10-26T20:01:30.017Z,99696.81
2023-10-26T20:03:57.794Z,99695.31
2023-10-26T20:06:25.464Z,99695.31
2023-10-26T20:08:53.324Z,99690.38
2023-10-26T20:11:20.887Z,99684.53
2023-10-26T20:13:48.517Z,99691.81
2023-10-26T20:16:16.552Z,99694.75
2023-10-26T20:18:46.077Z,99687.63
2023-10-26T20:21:13.645Z,99683.63
2023-10-26T20:23:41.270Z,99680.25
2023-10-26T20:26:08.930Z,99684.59
2023-10-26T20:28:36.509Z,99680.88
2023-10-26T20:31:05.000Z,99680.34
2023-10-26T20:33:32.651Z,99680.19
2023-10-26T20:36:00.219Z,99675.31
2023-10-26T20:38:27.837Z,99679.81
2023-10-26T20:40:55.425Z,99687.91
2023-10-26T20:43:23.014Z,99690.00
2023-10-26T20:45:58.092Z,99681.75
2023-10-26T20:48:26.299Z,99679.28
2023-10-26T20:50:54.935Z,99678.72
2023-10-26T20:53:26.543Z,99683.66
2023-10-26T20:56:01.667Z,99669.41
2023-10-26T20:58:30.557Z,99666.50
2023-10-26T21:00:58.247Z,99664.13
2023-10-26T21:03:26.234Z,99657.41
2023-10-26T21:05:54.582Z,99659.78
2023-10-26T21:08:23.172Z,99662.84
2023-10-26T21:10:50.821Z,99657.25
2023-10-26T21:13:18.753Z,99664.69
2023-10-26T21:15:46.582Z,99665.22
2023-10-26T21:18:14.235Z,99667.03
2023-10-26T21:20:41.811Z,99675.38
2023-10-26T21:23:09.530Z,99667.88
2023-10-26T21:25:37.160Z,99662.09
2023-10-26T21:28:05.016Z,99661.56
2023-10-26T21:30:32.580Z,99656.59
2023-10-26T21:33:00.177Z,99657.16
2023-10-26T21:35:31.011Z,99657.16
2023-10-26T21:37:58.593Z,99654.34
2023-10-26T21:40:26.190Z,99656.44
2023-10-26T21:42:53.837Z,99650.75
2023-10-26T21:45:21.376Z,99646.09
2023-10-26T21:47:48.970Z,99648.63
2023-10-26T21:50:16.546Z,99645.97
2023-10-26T21:52:44.144Z,99648.63
2023-10-26T21:55:11.769Z,99640.78
2023-10-26T21:57:39.367Z,99634.94
2023-10-26T22:00:07.447Z,99627.28
2023-10-26T22:05:02.695Z,99631.72
2023-10-26T22:07:30.322Z,99622.09
2023-10-26T22:09:57.995Z,99622.69
2023-10-26T22:12:25.718Z,99627.16
2023-10-26T22:14:53.689Z,99624.22
2023-10-26T22:17:21.311Z,99617.38
2023-10-26T22:19:51.599Z,99620.03
2023-10-26T22:22:19.529Z,99609.88
2023-10-26T22:24:47.076Z,99616.56
2023-10-26T22:27:14.686Z,99620.94
2023-10-26T22:29:42.731Z,99619.66
2023-10-26T22:32:10.727Z,99619.31
2023-10-26T22:34:38.330Z,99621.16
2023-10-26T22:37:06.003Z,99627.00
2023-10-26T22:39:33.501Z,99631.56
2023-10-26T22:42:01.064Z,99622.47
2023-10-26T22:44:29.024Z,99620.19
2023-10-26T22:46:56.695Z,99617.84
2023-10-26T22:49:24.385Z,99607.91
2023-10-26T22:51:51.993Z,99611.03
2023-10-26T22:54:19.549Z,99594.09
2023-10-26T22:56:47.086Z,99591.75
2023-10-26T22:59:15.012Z,99595.69
2023-10-26T23:01:42.660Z,99580.47
2023-10-26T23:04:10.326Z,99579.31
2023-10-26T23:06:37.972Z,99580.72
2023-10-26T23:09:05.910Z,99575.00
2023-10-26T23:11:33.402Z,99577.88
2023-10-26T23:14:01.177Z,99582.91
2023-10-26T23:16:29.537Z,99593.34
2023-10-26T23:18:57.554Z,99591.63
2023-10-26T23:21:25.505Z,99598.88
2023-10-26T23:23:53.016Z,99602.16
2023-10-26T23:26:20.625Z,99593.19
2023-10-26T23:28:48.569Z,99602.16
2023-10-26T23:31:16.097Z,99609.25
2023-10-26T23:33:43.658Z,99607.28
2023-10-26T23:36:11.678Z,99604.81
2023-10-26T23:38:39.205Z,99595.31
2023-10-26T23:41:07.317Z,99590.00
2023-10-26T23:43:35.365Z,99585.25
2023-10-26T23:46:03.050Z,99579.25
2023-10-26T23:48:31.013Z,99571.44
2023-10-26T23:50:58.688Z,99572.28
2023-10-26T23:53:26.231Z,99584.34
2023-10-26T23:55:53.801Z,99583.72
2023-10-26T23:58:21.903Z,99573.81
